Time;durP1;ratioP1;P1;durP2;ratioP2;P2;SDS_P1;SDS_P2;PMS_P1;PMS_P2;Temp;Humidity;BMP_temperature;BMP_pressure;BME280_temperature;BME280_humidity;BME280_pressure;Samples;Min_cycle;Max_cycle;Signal;HPM_P1;HPM_P2
2022/08/14 00:02:15;;;;;;;0.00;0.00;;;18.70;99.90;17.50;95972.00;;;;5033833;28;20599;-75
2022/08/14 00:04:43;;;;;;;0.00;0.00;;;18.60;99.90;17.40;95960.00;;;;5034786;28;20217;-75
2022/08/14 00:07:13;;;;;;;0.00;0.00;;;18.60;99.90;17.50;95987.00;;;;5034179;28;20782;-76
2022/08/14 00:09:42;;;;;;;0.00;0.00;;;18.60;99.90;17.50;95997.00;;;;5033583;28;20280;-75
2022/08/14 00:12:34;;;;;;;0.00;0.00;;;18.60;99.90;17.50;96015.00;;;;5034415;28;20214;-76
2022/08/14 00:15:13;;;;;;;0.00;0.00;;;18.70;99.90;17.60;95980.00;;;;5035479;28;20194;-75
2022/08/14 00:17:42;;;;;;;0.00;0.00;;;18.70;99.90;17.50;95934.00;;;;5035105;28;20242;-75
2022/08/14 00:20:29;;;;;;;0.00;0.00;;;18.60;99.90;17.30;95941.00;;;;5035608;28;20182;-75
2022/08/14 00:23:11;;;;;;;0.00;0.00;;;18.40;99.90;17.10;95943.00;;;;5036148;28;20210;-73
2022/08/14 00:25:47;;;;;;;0.00;0.00;;;18.40;99.90;17.10;95955.00;;;;5034758;28;20205;-76
2022/08/14 00:28:35;;;;;;;0.00;0.00;;;18.30;99.90;17.00;95941.00;;;;5035145;28;20195;-76
2022/08/14 00:31:06;;;;;;;0.10;0.10;;;18.20;99.90;16.90;95932.00;;;;5034279;28;20226;-76
2022/08/14 00:33:37;;;;;;;0.00;0.00;;;18.10;99.90;16.90;95931.00;;;;5033907;28;20673;-76
2022/08/14 00:36:21;;;;;;;0.00;0.00;;;18.20;99.90;16.80;95924.00;;;;5033610;28;20215;-76
2022/08/14 00:39:14;;;;;;;0.00;0.00;;;18.00;99.90;16.80;95888.00;;;;5032959;28;20663;-76
2022/08/14 00:41:46;;;;;;;0.00;0.00;;;18.00;99.90;16.80;95940.00;;;;5026492;28;20203;-76
2022/08/14 00:44:16;;;;;;;0.00;0.00;;;18.00;99.90;16.80;95879.00;;;;5022887;28;20559;-75
2022/08/14 00:46:59;;;;;;;0.00;0.00;;;18.10;99.90;16.80;95893.00;;;;5016188;28;20215;-74
2022/08/14 00:49:29;;;;;;;0.00;0.00;;;18.00;99.90;16.80;95888.00;;;;5033490;28;20218;-75
2022/08/14 00:52:04;;;;;;;0.00;0.00;;;18.10;99.90;16.80;95906.00;;;;5033550;28;20571;-77
2022/08/14 00:54:36;;;;;;;0.00;0.00;;;18.10;99.90;16.80;95984.00;;;;5033256;28;20740;-77
2022/08/14 00:57:05;;;;;;;0.00;0.00;;;18.00;99.90;16.70;96019.00;;;;5033521;28;20568;-77
2022/08/14 00:59:35;;;;;;;0.00;0.00;;;17.90;99.90;16.70;96071.00;;;;5032242;28;20191;-77
2022/08/14 01:02:05;;;;;;;0.00;0.00;;;17.90;99.90;16.60;96011.00;;;;5033865;28;20206;-77
2022/08/14 01:04:38;;;;;;;0.00;0.00;;;17.80;99.90;16.60;96033.00;;;;5034196;28;20188;-76
2022/08/14 01:07:22;;;;;;;0.00;0.00;;;17.80;99.90;16.50;96002.00;;;;5033505;28;20276;-77
2022/08/14 01:09:54;;;;;;;0.00;0.00;;;17.70;99.90;16.50;96053.00;;;;5033456;28;20693;-77
2022/08/14 01:12:26;;;;;;;0.00;0.00;;;17.70;99.90;16.50;95922.00;;;;5032703;28;20199;-77
2022/08/14 01:15:00;;;;;;;0.00;0.00;;;17.60;99.90;16.50;96025.00;;;;5018370;28;20286;-77
2022/08/14 01:23:02;;;;;;;0.00;0.00;;;17.60;99.90;16.40;96034.00;;;;5009270;28;20285;-75
2022/08/14 01:25:31;;;;;;;0.10;0.10;;;17.60;99.90;16.50;96032.00;;;;5032897;28;20213;-75
2022/08/14 01:27:59;;;;;;;0.00;0.00;;;17.60;99.90;16.60;96110.00;;;;5032323;28;20219;-75
2022/08/14 01:30:31;;;;;;;0.00;0.00;;;17.70;99.90;16.80;96076.00;;;;5032783;28;20238;-75
2022/08/14 01:33:07;;;;;;;0.00;0.00;;;17.90;99.90;16.80;96121.00;;;;5032952;28;20210;-75
2022/08/14 01:35:35;;;;;;;0.00;0.00;;;17.90;99.90;16.80;96091.00;;;;5032761;28;20222;-75
2022/08/14 01:38:25;;;;;;;0.00;0.00;;;17.90;99.90;16.80;96056.00;;;;5032171;28;20493;-76
2022/08/14 01:40:53;;;;;;;0.00;0.00;;;17.90;99.90;16.80;96109.00;;;;5033912;28;20191;-76
2022/08/14 01:43:22;;;;;;;0.00;0.00;;;17.90;99.90;16.90;96093.00;;;;5033823;28;20199;-75
2022/08/14 01:45:53;;;;;;;0.00;0.00;;;17.90;99.90;16.90;96137.00;;;;5034485;28;20206;-75
2022/08/14 01:48:34;;;;;;;0.00;0.00;;;17.90;99.90;16.80;96074.00;;;;5034636;28;20199;-75
2022/08/14 01:51:05;;;;;;;0.00;0.00;;;17.90;99.90;16.50;95999.00;;;;5033247;28;20218;-75
2022/08/14 01:53:52;;;;;;;0.00;0.00;;;17.70;99.90;16.40;95946.00;;;;5032946;28;20201;-74
2022/08/14 01:56:32;;;;;;;0.00;0.00;;;17.70;99.90;16.40;95959.00;;;;5032411;28;20641;-74
2022/08/14 01:59:09;;;;;;;0.00;0.00;;;17.70;99.90;16.30;95934.00;;;;5033387;28;20223;-74
2022/08/14 02:01:45;;;;;;;0.00;0.00;;;17.60;99.90;16.30;95899.00;;;;5032463;28;20211;-75
2022/08/14 02:04:30;;;;;;;0.00;0.00;;;17.50;99.90;16.30;95938.00;;;;5034443;28;20209;-74
2022/08/14 02:07:19;;;;;;;0.00;0.00;;;17.50;99.90;16.30;95948.00;;;;5032188;28;20211;-74
2022/08/14 02:10:10;;;;;;;0.00;0.00;;;17.60;99.90;16.20;95952.00;;;;5032321;28;20222;-74
2022/08/14 02:12:42;;;;;;;0.00;0.00;;;17.50;99.90;16.20;95903.00;;;;5021125;28;20560;-75
2022/08/14 02:15:11;;;;;;;0.00;0.00;;;17.50;99.90;16.10;95906.00;;;;5033436;28;20206;-75
2022/08/14 02:17:42;;;;;;;0.03;0.03;;;17.30;99.90;16.10;95912.00;;;;5033085;28;20249;-75
2022/08/14 02:20:12;;;;;;;0.00;0.00;;;17.30;99.90;16.00;95904.00;;;;5021808;28;20667;-75
2022/08/14 02:22:41;;;;;;;0.00;0.00;;;17.30;99.90;16.10;95938.00;;;;5017750;28;20195;-75
2022/08/14 02:25:16;;;;;;;0.00;0.00;;;17.30;99.90;16.10;95937.00;;;;5033129;28;20607;-74
2022/08/14 02:27:44;;;;;;;0.00;0.00;;;17.30;99.90;16.00;95924.00;;;;5032632;28;20265;-73
2022/08/14 02:30:33;;;;;;;0.00;0.00;;;17.20;99.90;16.10;95944.00;;;;5032844;28;20245;-73
2022/08/14 02:33:06;;;;;;;0.00;0.00;;;17.20;99.90;15.90;95910.00;;;;5032645;28;20213;-74
2022/08/14 02:35:34;;;;;;;0.00;0.00;;;17.10;99.90;15.80;95889.00;;;;5031448;28;20233;-75
2022/08/14 02:38:08;;;;;;;0.00;0.00;;;17.00;99.90;15.80;95901.00;;;;5032156;28;20203;-76
2022/08/14 02:40:49;;;;;;;0.00;0.00;;;17.00;99.90;15.80;95858.00;;;;5034619;28;20233;-75
2022/08/14 02:43:20;;;;;;;0.00;0.00;;;17.00;99.90;15.80;95857.00;;;;5036794;28;20210;-75
2022/08/14 02:45:49;;;;;;;0.00;0.00;;;17.00;99.90;15.70;95918.00;;;;5034688;28;20223;-75
2022/08/14 02:48:18;;;;;;;0.00;0.00;;;16.90;99.90;15.60;95868.00;;;;5037297;28;20279;-75
2022/08/14 02:51:10;;;;;;;0.00;0.00;;;16.80;99.90;15.60;95839.00;;;;5033552;28;20229;-74
2022/08/14 02:53:41;;;;;;;0.00;0.00;;;16.80;99.90;15.70;95852.00;;;;5031780;28;20187;-74
2022/08/14 02:56:14;;;;;;;0.00;0.00;;;16.80;99.90;15.30;95843.00;;;;5032810;28;20199;-74
2022/08/14 02:59:02;;;;;;;0.00;0.00;;;16.90;99.90;15.70;95833.00;;;;5032801;28;20541;-75
2022/08/14 03:01:34;;;;;;;0.00;0.00;;;16.90;99.90;15.70;95845.00;;;;5033165;28;20203;-75
2022/08/14 03:04:18;;;;;;;0.00;0.00;;;16.90;99.90;15.50;95838.00;;;;5041153;28;20197;-75
2022/08/14 03:06:49;;;;;;;0.00;0.00;;;16.80;99.90;15.50;95847.00;;;;5036169;28;20701;-75
2022/08/14 03:09:36;;;;;;;0.00;0.00;;;16.70;99.90;15.50;95867.00;;;;5036466;28;20218;-74
2022/08/14 03:12:26;;;;;;;0.00;0.00;;;16.80;99.90;15.50;95836.00;;;;5035613;28;20211;-75
2022/08/14 03:15:02;;;;;;;0.00;0.00;;;16.80;99.90;15.60;95857.00;;;;5035824;28;20274;-73
2022/08/14 03:17:33;;;;;;;0.00;0.00;;;16.80;99.90;15.60;95799.00;;;;5035288;28;20623;-76
2022/08/14 03:20:21;;;;;;;0.00;0.00;;;16.80;99.90;15.60;95763.00;;;;5035817;28;20253;-73
2022/08/14 03:22:50;;;;;;;0.00;0.00;;;16.80;99.90;15.50;95829.00;;;;5035343;28;20222;-73
2022/08/14 03:25:20;;;;;;;0.00;0.00;;;16.70;99.90;15.50;95833.00;;;;5035546;28;20191;-73
2022/08/14 03:27:50;;;;;;;0.00;0.00;;;16.70;99.90;15.50;95825.00;;;;5034963;28;20305;-74
2022/08/14 03:30:29;;;;;;;0.00;0.00;;;16.80;99.90;15.60;95818.00;;;;5032688;28;20207;-73
2022/08/14 03:33:11;;;;;;;0.00;0.00;;;16.80;99.90;15.60;95824.00;;;;5030182;28;20214;-74
2022/08/14 03:35:41;;;;;;;0.00;0.00;;;16.80;99.90;15.60;95840.00;;;;5036209;28;20716;-73
2022/08/14 03:38:29;;;;;;;0.00;0.00;;;16.90;99.90;15.60;95830.00;;;;5034104;28;20732;-76
2022/08/14 03:41:20;;;;;;;0.00;0.00;;;16.90;99.90;15.60;95841.00;;;;5015123;28;20559;-74
2022/08/14 03:43:55;;;;;;;0.00;0.00;;;16.80;99.90;15.60;95848.00;;;;5015859;28;20246;-74
2022/08/14 03:46:31;;;;;;;0.00;0.00;;;16.80;99.90;15.70;95861.00;;;;5030267;28;20211;-74
2022/08/14 03:49:22;;;;;;;0.00;0.00;;;17.00;99.90;15.50;95841.00;;;;5034744;28;20264;-76
2022/08/14 03:51:56;;;;;;;0.00;0.00;;;16.80;99.90;15.40;95809.00;;;;5034677;28;20237;-76
2022/08/14 03:54:27;;;;;;;0.00;0.00;;;16.70;99.90;226.50;231333.00;;;;5034919;28;20227;-76
2022/08/14 03:56:59;;;;;;;0.00;0.00;;;16.70;99.90;226.50;231333.00;;;;5025022;28;20235;-75
2022/08/14 03:59:31;;;;;;;0.00;0.00;;;16.60;99.90;226.50;231333.00;;;;5034323;28;20209;-76
2022/08/14 04:02:02;;;;;;;0.00;0.00;;;16.60;99.90;226.50;231333.00;;;;5033732;28;20206;-75
2022/08/14 04:04:36;;;;;;;0.00;0.00;;;16.60;99.90;226.50;231333.00;;;;5034789;28;20206;-76
2022/08/14 04:07:09;;;;;;;0.00;0.00;;;16.60;99.90;226.50;231333.00;;;;5035295;28;20732;-76
2022/08/14 04:09:37;;;;;;;0.00;0.00;;;16.60;99.90;226.50;231333.00;;;;5034724;28;20193;-75
2022/08/14 04:12:06;;;;;;;0.00;0.00;;;16.50;99.90;226.50;231333.00;;;;5027252;28;20227;-75
2022/08/14 04:14:42;;;;;;;0.00;0.00;;;16.50;99.90;226.50;231333.00;;;;5025972;28;20225;-75
2022/08/14 04:17:12;;;;;;;0.10;0.10;;;16.50;99.90;226.50;231333.00;;;;5034404;28;20211;-75
2022/08/14 04:19:43;;;;;;;0.00;0.00;;;16.60;99.90;226.50;231333.00;;;;5033885;28;20201;-74
2022/08/14 04:22:12;;;;;;;0.00;0.00;;;16.80;99.90;226.50;231333.00;;;;5034030;28;20682;-74
2022/08/14 04:24:44;;;;;;;0.00;0.00;;;16.80;99.90;226.50;231333.00;;;;5035068;28;20199;-75
2022/08/14 04:27:16;;;;;;;0.10;0.10;;;16.80;99.90;226.50;231333.00;;;;5033938;28;20223;-75
2022/08/14 04:29:45;;;;;;;0.10;0.10;;;16.70;99.90;226.50;231333.00;;;;5034438;28;20551;-72
2022/08/14 04:32:14;;;;;;;0.00;0.00;;;16.50;99.90;226.50;231333.00;;;;5034164;28;20222;-72
2022/08/14 04:35:02;;;;;;;0.00;0.00;;;16.50;99.90;226.50;231333.00;;;;5033414;28;20253;-72
2022/08/14 04:46:10;;;;;;;0.00;0.00;;;16.40;99.90;226.50;231333.00;;;;5033303;28;20203;-73
2022/08/14 04:48:58;;;;;;;0.00;0.00;;;16.50;99.90;226.50;231333.00;;;;5033822;28;20191;-73
2022/08/14 04:51:28;;;;;;;0.00;0.00;;;16.40;99.90;226.50;231333.00;;;;5033476;28;20218;-73
2022/08/14 04:54:04;;;;;;;0.10;0.10;;;16.30;99.90;226.50;231333.00;;;;5033592;28;20203;-75
2022/08/14 04:56:32;;;;;;;0.00;0.00;;;16.20;99.90;226.50;231333.00;;;;5014386;28;20215;-74
2022/08/14 04:59:05;;;;;;;0.00;0.00;;;16.20;99.90;226.50;231333.00;;;;5016885;28;20195;-74
2022/08/14 05:01:43;;;;;;;0.03;0.03;;;16.20;99.90;226.50;231333.00;;;;5031982;28;20602;-74
2022/08/14 05:04:18;;;;;;;0.10;0.10;;;16.30;99.90;226.50;231333.00;;;;5039749;28;20197;-75
2022/08/14 05:06:50;;;;;;;0.10;0.10;;;16.30;99.90;226.50;231333.00;;;;5033396;28;20211;-75
2022/08/14 05:09:22;;;;;;;0.10;0.10;;;16.50;99.90;226.50;231333.00;;;;5032941;28;20191;-75
2022/08/14 05:11:51;;;;;;;0.10;0.10;;;16.50;99.90;226.50;231333.00;;;;5033135;28;20426;-75
2022/08/14 05:14:22;;;;;;;0.00;0.00;;;16.50;99.90;226.50;231333.00;;;;5033211;28;20187;-75
2022/08/14 05:17:12;;;;;;;0.00;0.00;;;16.50;99.90;226.50;231333.00;;;;5033919;28;20261;-75
2022/08/14 05:19:40;;;;;;;0.10;0.10;;;16.50;99.90;226.50;231333.00;;;;5032920;28;20234;-74
2022/08/14 05:22:28;;;;;;;0.10;0.10;;;16.40;99.90;226.50;231333.00;;;;5028042;28;20214;-74
2022/08/14 05:24:57;;;;;;;0.00;0.00;;;16.30;99.90;226.50;231333.00;;;;5029916;28;20728;-74
2022/08/14 05:27:25;;;;;;;0.00;0.00;;;16.30;99.90;226.50;231333.00;;;;5022354;28;20227;-75
2022/08/14 05:29:58;;;;;;;0.10;0.10;;;16.30;99.90;226.50;231333.00;;;;5026649;28;20196;-75
2022/08/14 05:32:28;;;;;;;0.00;0.00;;;16.30;99.90;226.50;231333.00;;;;5030497;28;20309;-75
2022/08/14 05:34:58;;;;;;;0.03;0.03;;;16.30;99.90;226.50;231333.00;;;;5032220;28;20202;-75
2022/08/14 05:37:29;;;;;;;0.00;0.00;;;16.40;99.90;226.50;231333.00;;;;5032731;28;20231;-74
2022/08/14 05:39:59;;;;;;;0.00;0.00;;;16.40;99.90;226.50;231333.00;;;;5032834;28;20195;-73
2022/08/14 05:42:29;;;;;;;0.00;0.00;;;16.40;99.90;226.50;231333.00;;;;5032426;28;20270;-73
2022/08/14 05:45:03;;;;;;;0.00;0.00;;;16.40;99.90;226.50;231333.00;;;;5032687;28;20274;-74
2022/08/14 05:47:39;;;;;;;0.00;0.00;;;16.40;99.90;226.50;231333.00;;;;5032027;28;20211;-74
2022/08/14 05:50:10;;;;;;;0.00;0.00;;;16.40;99.90;226.50;231333.00;;;;5032200;28;20321;-73
2022/08/14 05:52:47;;;;;;;0.00;0.00;;;16.50;99.90;226.50;231333.00;;;;5032254;28;20211;-74
2022/08/14 05:55:16;;;;;;;0.00;0.00;;;16.60;99.90;226.50;231333.00;;;;5032269;28;20199;-74
2022/08/14 05:57:54;;;;;;;0.00;0.00;;;16.70;99.90;226.50;231333.00;;;;5034249;28;20698;-74
2022/08/14 06:00:29;;;;;;;0.00;0.00;;;16.80;99.90;226.50;231333.00;;;;5031870;28;20201;-73
2022/08/14 06:03:13;;;;;;;0.00;0.00;;;16.90;99.90;226.50;231333.00;;;;5020801;28;20206;-73
2022/08/14 06:05:42;;;;;;;0.00;0.00;;;17.00;99.90;226.50;231333.00;;;;5051143;28;20239;-73
2022/08/14 06:08:19;;;;;;;0.00;0.00;;;17.10;99.90;226.50;231333.00;;;;5045296;28;20768;-73
2022/08/14 06:11:07;;;;;;;0.00;0.00;;;17.20;99.90;226.50;231333.00;;;;5028611;28;20199;-73
2022/08/14 06:13:39;;;;;;;0.00;0.00;;;17.30;99.90;226.50;231333.00;;;;5022667;28;20214;-73
2022/08/14 06:16:15;;;;;;;0.00;0.00;;;17.40;99.90;226.50;231333.00;;;;5032179;28;20262;-73
2022/08/14 06:18:48;;;;;;;0.00;0.00;;;17.50;99.90;226.50;231333.00;;;;5032038;28;20231;-73
2022/08/14 06:21:20;;;;;;;0.00;0.00;;;17.60;99.90;226.50;231333.00;;;;5032407;28;20273;-74
2022/08/14 06:23:49;;;;;;;0.00;0.00;;;17.60;99.90;226.50;231333.00;;;;5031708;28;20286;-73
2022/08/14 06:26:18;;;;;;;0.00;0.00;;;17.70;99.90;226.50;231333.00;;;;5032105;28;20211;-74
2022/08/14 06:28:49;;;;;;;0.00;0.00;;;17.70;99.90;226.50;231333.00;;;;5026494;28;20286;-74
2022/08/14 06:31:19;;;;;;;0.00;0.00;;;17.80;99.90;226.50;231333.00;;;;5027901;28;20215;-74
2022/08/14 06:33:49;;;;;;;0.00;0.00;;;17.90;99.90;226.50;231333.00;;;;5024403;28;20239;-73
2022/08/14 06:36:37;;;;;;;0.10;0.10;;;18.00;99.90;226.50;231333.00;;;;5019931;28;20219;-74
2022/08/14 06:39:06;;;;;;;0.00;0.00;;;18.10;99.90;226.50;231333.00;;;;5036440;28;20222;-74
2022/08/14 06:41:37;;;;;;;0.00;0.00;;;18.10;99.90;226.50;231333.00;;;;5037344;28;20202;-74
2022/08/14 06:44:26;;;;;;;0.00;0.00;;;18.20;99.90;226.50;231333.00;;;;5032181;28;20501;-74
2022/08/14 06:47:00;;;;;;;0.00;0.00;;;18.40;99.90;226.50;231333.00;;;;5020963;28;20277;-74
2022/08/14 06:49:30;;;;;;;0.00;0.00;;;18.60;99.90;226.50;231333.00;;;;5028148;28;20199;-73
2022/08/14 06:52:13;;;;;;;0.00;0.00;;;18.70;99.90;226.50;231333.00;;;;5037830;28;20210;-74
2022/08/14 06:54:43;;;;;;;0.00;0.00;;;18.80;99.90;226.50;231333.00;;;;5038467;28;20190;-74
2022/08/14 06:57:12;;;;;;;0.00;0.00;;;19.00;99.90;226.50;231333.00;;;;5038467;28;20222;-75
2022/08/14 06:59:41;;;;;;;0.00;0.00;;;19.10;99.90;226.50;231333.00;;;;5041358;28;20210;-74
2022/08/14 07:07:51;;;;;;;0.00;0.00;;;19.50;99.90;226.50;231333.00;;;;5047327;28;20300;-73
2022/08/14 07:10:21;;;;;;;0.00;0.00;;;19.70;99.90;226.50;231333.00;;;;5050586;28;20202;-74
2022/08/14 07:12:52;;;;;;;0.00;0.00;;;19.80;99.90;226.50;231333.00;;;;5020082;28;20264;-74
2022/08/14 07:15:31;;;;;;;0.00;0.00;;;20.00;99.90;226.50;231333.00;;;;5032981;28;20191;-74
2022/08/14 07:18:08;;;;;;;0.00;0.00;;;20.10;99.90;226.50;231333.00;;;;5032381;28;20218;-74
2022/08/14 07:20:39;;;;;;;0.00;0.00;;;20.40;99.90;226.50;231333.00;;;;5050032;28;20231;-74
2022/08/14 07:23:11;;;;;;;0.00;0.00;;;20.50;99.90;226.50;231333.00;;;;5031097;28;20198;-74
2022/08/14 07:25:48;;;;;;;0.00;0.00;;;20.70;99.90;226.50;231333.00;;;;5020771;28;20198;-74
2022/08/14 07:28:22;;;;;;;0.00;0.00;;;20.80;99.90;226.50;231333.00;;;;5039162;28;20206;-74
2022/08/14 07:30:55;;;;;;;0.00;0.00;;;21.00;99.90;226.50;231333.00;;;;5032304;28;20241;-74
2022/08/14 07:33:24;;;;;;;0.00;0.00;;;21.20;99.90;226.50;231333.00;;;;5022417;28;20219;-74
2022/08/14 07:36:01;;;;;;;0.00;0.00;;;21.30;99.90;226.50;231333.00;;;;5032231;28;20218;-74
2022/08/14 07:38:50;;;;;;;0.00;0.00;;;21.40;99.90;226.50;231333.00;;;;5025124;28;20198;-73
2022/08/14 07:41:19;;;;;;;0.00;0.00;;;21.50;99.90;226.50;231333.00;;;;5028381;28;20281;-75
2022/08/14 07:43:48;;;;;;;0.00;0.00;;;21.70;99.90;226.50;231333.00;;;;5030349;28;20192;-74
2022/08/14 07:46:23;;;;;;;0.00;0.00;;;21.80;99.90;226.50;231333.00;;;;5027087;28;20214;-74
2022/08/14 07:48:58;;;;;;;0.00;0.00;;;22.00;99.90;226.50;231333.00;;;;5026418;28;20613;-74
2022/08/14 07:51:27;;;;;;;0.00;0.00;;;22.10;99.90;226.50;231333.00;;;;5025127;28;20191;-74
2022/08/14 07:54:05;;;;;;;0.00;0.00;;;22.20;99.90;226.50;231333.00;;;;5033692;28;20214;-74
2022/08/14 07:56:39;;;;;;;0.00;0.00;;;22.30;99.90;226.50;231333.00;;;;5037999;28;20640;-74
2022/08/14 07:59:17;;;;;;;0.00;0.00;;;22.40;99.90;226.50;231333.00;;;;5038148;28;20194;-74
2022/08/14 08:01:47;;;;;;;0.00;0.00;;;22.70;99.90;226.50;231333.00;;;;5037656;28;20210;-74
2022/08/14 08:04:26;;;;;;;0.00;0.00;;;22.80;99.90;226.50;231333.00;;;;5034238;28;20285;-75
2022/08/14 08:06:55;;;;;;;0.00;0.00;;;22.80;99.90;226.50;231333.00;;;;5042972;28;20237;-74
2022/08/14 08:09:27;;;;;;;0.00;0.00;;;22.90;99.90;226.50;231333.00;;;;5036102;28;20215;-74
2022/08/14 08:12:02;;;;;;;0.00;0.00;;;23.00;99.90;226.50;231333.00;;;;5044903;28;20202;-74
2022/08/14 08:14:34;;;;;;;0.00;0.00;;;23.10;99.90;226.50;231333.00;;;;5038218;28;20312;-74
2022/08/14 08:17:23;;;;;;;0.00;0.00;;;23.30;99.90;226.50;231333.00;;;;5020194;28;20695;-74
2022/08/14 08:19:51;;;;;;;0.00;0.00;;;23.40;99.90;226.50;231333.00;;;;5015879;28;20200;-74
2022/08/14 08:22:22;;;;;;;0.00;0.00;;;23.60;99.90;226.50;231333.00;;;;5030035;28;20654;-74
2022/08/14 08:24:54;;;;;;;0.00;0.00;;;23.70;99.90;226.50;231333.00;;;;5035193;28;20576;-74
2022/08/14 08:27:24;;;;;;;0.00;0.00;;;23.90;99.90;226.50;231333.00;;;;5044337;28;20609;-74
2022/08/14 08:30:08;;;;;;;0.00;0.00;;;24.00;99.90;226.50;231333.00;;;;5015119;28;20192;-74
2022/08/14 08:32:40;;;;;;;0.00;0.00;;;24.10;99.90;226.50;231333.00;;;;5039685;28;20201;-74
2022/08/14 08:35:19;;;;;;;0.00;0.00;;;24.10;99.90;226.50;231333.00;;;;5020464;28;20206;-74
2022/08/14 08:37:50;;;;;;;0.00;0.00;;;24.40;99.90;226.50;231333.00;;;;5037292;28;20250;-75
2022/08/14 08:40:34;;;;;;;0.00;0.00;;;24.60;99.90;226.50;231333.00;;;;5033762;28;20727;-75
2022/08/14 08:43:17;;;;;;;0.00;0.00;;;24.80;99.90;226.50;231333.00;;;;5037526;28;20244;-74
2022/08/14 08:45:55;;;;;;;0.00;0.00;;;25.00;99.90;226.50;231333.00;;;;5052835;28;20205;-75
2022/08/14 08:48:28;;;;;;;0.00;0.00;;;25.10;99.90;226.50;231333.00;;;;5041887;28;20585;-74
2022/08/14 08:51:04;;;;;;;0.00;0.00;;;25.00;99.90;226.50;231333.00;;;;5052980;28;20225;-74
2022/08/14 08:53:35;;;;;;;0.00;0.00;;;25.10;99.90;226.50;231333.00;;;;5039639;28;20234;-75
2022/08/14 08:56:04;;;;;;;0.00;0.00;;;25.20;99.90;226.50;231333.00;;;;5040636;28;20202;-74
2022/08/14 08:58:32;;;;;;;0.00;0.00;;;25.30;99.90;226.50;231333.00;;;;5038605;28;20608;-75
2022/08/14 09:01:00;;;;;;;0.00;0.00;;;25.30;99.90;226.50;231333.00;;;;5034363;28;20195;-74
2022/08/14 09:03:31;;;;;;;0.00;0.00;;;25.30;99.90;226.50;231333.00;;;;5043101;28;20205;-74
2022/08/14 09:06:04;;;;;;;0.00;0.00;;;25.40;99.90;226.50;231333.00;;;;5041076;28;20199;-74
2022/08/14 09:08:54;;;;;;;0.00;0.00;;;25.50;99.90;226.50;231333.00;;;;5051443;28;20198;-75
2022/08/14 09:11:24;;;;;;;0.00;0.00;;;25.40;99.90;226.50;231333.00;;;;5015391;28;20200;-74
2022/08/14 09:13:54;;;;;;;0.00;0.00;;;25.50;99.90;226.50;231333.00;;;;5031847;28;20619;-74
2022/08/14 09:16:24;;;;;;;0.00;0.00;;;25.70;99.90;226.50;231333.00;;;;5036493;28;20728;-75
2022/08/14 09:18:53;;;;;;;0.00;0.00;;;25.70;99.90;226.50;231333.00;;;;5032135;28;20202;-74
2022/08/14 09:21:23;;;;;;;0.00;0.00;;;25.90;99.90;226.50;231333.00;;;;5032964;28;20191;-74
2022/08/14 09:24:00;;;;;;;0.00;0.00;;;25.90;99.90;226.50;231333.00;;;;5031560;28;20234;-75
2022/08/14 09:26:48;;;;;;;0.00;0.00;;;26.00;99.90;226.50;231333.00;;;;5037491;28;20218;-75
2022/08/14 09:29:19;;;;;;;0.00;0.00;;;26.00;99.90;226.50;231333.00;;;;5043673;28;20218;-75
2022/08/14 09:31:55;;;;;;;0.00;0.00;;;26.10;99.90;226.50;231333.00;;;;5054747;28;20205;-75
2022/08/14 09:34:49;;;;;;;0.00;0.00;;;26.10;99.90;226.50;231333.00;;;;5026794;28;20281;-75
2022/08/14 09:37:39;;;;;;;0.00;0.00;;;26.00;99.90;226.50;231333.00;;;;5042396;28;20273;-75
2022/08/14 09:40:35;;;;;;;0.00;0.00;;;26.00;99.90;226.50;231333.00;;;;5053356;28;20202;-75
2022/08/14 09:43:23;;;;;;;0.00;0.00;;;26.10;99.90;226.50;231333.00;;;;5038087;28;20255;-75
2022/08/14 09:45:57;;;;;;;0.00;0.00;;;26.20;99.90;226.50;231333.00;;;;5051721;28;20182;-75
2022/08/14 09:48:28;;;;;;;0.00;0.00;;;26.30;99.90;226.50;231333.00;;;;5036463;28;20205;-74
2022/08/14 09:50:59;;;;;;;0.00;0.00;;;26.40;99.90;226.50;231333.00;;;;5035499;28;20195;-75
2022/08/14 09:53:42;;;;;;;0.00;0.00;;;26.40;99.90;226.50;231333.00;;;;5037552;28;20244;-74
2022/08/14 09:56:45;;;;;;;0.00;0.00;;;26.50;99.90;226.50;231333.00;;;;5050842;28;20222;-74
2022/08/14 09:59:26;;;;;;;0.00;0.00;;;26.70;99.90;226.50;231333.00;;;;5039130;28;20218;-75
2022/08/14 10:01:59;;;;;;;0.00;0.00;;;26.80;99.90;226.50;231333.00;;;;5036724;28;20198;-75
2022/08/14 10:04:28;;;;;;;0.00;0.00;;;27.00;99.90;226.50;231333.00;;;;5046086;28;20198;-75
2022/08/14 10:07:04;;;;;;;0.00;0.00;;;27.20;99.90;226.50;231333.00;;;;5028131;28;20223;-74
2022/08/14 10:09:47;;;;;;;0.00;0.00;;;27.50;99.90;226.50;231333.00;;;;5018105;28;20606;-74
2022/08/14 10:12:48;;;;;;;0.00;0.00;;;27.60;99.90;226.50;231333.00;;;;5013305;28;20200;-74
2022/08/14 10:15:25;;;;;;;0.00;0.00;;;27.70;99.90;226.50;231333.00;;;;5012605;28;20269;-75
2022/08/14 10:18:09;;;;;;;0.00;0.00;;;27.70;99.90;226.50;231333.00;;;;5011481;28;20250;-74
2022/08/14 10:20:56;;;;;;;0.00;0.00;;;27.60;99.90;226.50;231333.00;;;;5018123;28;20191;-75
2022/08/14 10:23:27;;;;;;;0.00;0.00;;;27.70;99.90;226.50;231333.00;;;;5032325;28;20187;-75
2022/08/14 10:26:07;;;;;;;0.00;0.00;;;27.70;99.90;226.50;231333.00;;;;5032566;28;20187;-74
2022/08/14 10:28:43;;;;;;;0.00;0.00;;;28.00;99.90;226.50;231333.00;;;;5032104;28;20280;-74
2022/08/14 10:31:33;;;;;;;0.00;0.00;;;28.20;99.90;226.50;231333.00;;;;5048753;28;20224;-75
2022/08/14 10:34:20;;;;;;;0.00;0.00;;;28.40;99.90;226.50;231333.00;;;;5032451;28;20221;-74
2022/08/14 10:37:06;;;;;;;0.00;0.00;;;28.70;99.90;226.50;231333.00;;;;5032255;28;20219;-74
2022/08/14 10:39:43;;;;;;;0.00;0.00;;;28.90;99.90;226.50;231333.00;;;;5032746;28;20203;-76
2022/08/14 10:42:37;;;;;;;0.00;0.00;;;29.00;99.90;226.50;231333.00;;;;5032430;28;20191;-74
2022/08/14 10:45:19;;;;;;;0.00;0.00;;;29.00;99.90;226.50;231333.00;;;;5031680;28;20191;-74
2022/08/14 10:47:49;;;;;;;0.00;0.00;;;29.00;99.90;226.50;231333.00;;;;5036838;28;20238;-76
2022/08/14 10:50:44;;;;;;;0.00;0.00;;;28.70;99.60;226.50;231333.00;;;;5031391;28;20191;-73
2022/08/14 10:53:14;;;;;;;0.00;0.00;;;28.30;99.90;226.50;231333.00;;;;5025396;28;20195;-73
2022/08/14 10:55:42;;;;;;;0.00;0.00;;;28.20;99.90;226.50;231333.00;;;;5047602;28;20638;-75
2022/08/14 10:58:13;;;;;;;0.00;0.00;;;28.00;99.90;226.50;231333.00;;;;5051460;28;20237;-75
2022/08/14 11:00:57;;;;;;;0.00;0.00;;;27.80;99.90;226.50;231333.00;;;;5040370;28;20265;-75
2022/08/14 11:03:39;;;;;;;0.00;0.00;;;27.80;99.90;226.50;231333.00;;;;5031081;28;20191;-75
2022/08/14 11:06:24;;;;;;;0.00;0.00;;;27.60;99.90;226.50;231333.00;;;;5030346;28;20595;-75
2022/08/14 11:08:54;;;;;;;0.00;0.00;;;27.50;99.90;226.50;231333.00;;;;5034467;28;20198;-75
2022/08/14 11:11:26;;;;;;;0.00;0.00;;;27.60;99.90;226.50;231333.00;;;;5042361;28;20202;-76
2022/08/14 11:14:06;;;;;;;0.00;0.00;;;27.60;99.90;226.50;231333.00;;;;5038192;28;20214;-75
2022/08/14 11:16:40;;;;;;;0.00;0.00;;;27.50;99.90;226.50;231333.00;;;;5042823;28;20218;-75
2022/08/14 11:19:23;;;;;;;0.00;0.00;;;27.50;99.90;226.50;231333.00;;;;5037766;28;20670;-75
2022/08/14 11:21:54;;;;;;;0.00;0.00;;;27.50;99.90;226.50;231333.00;;;;5051690;28;20198;-75
2022/08/14 11:24:27;;;;;;;0.00;0.00;;;27.40;99.90;226.50;231333.00;;;;5037803;28;20207;-76
2022/08/14 11:27:24;;;;;;;0.00;0.00;;;27.30;99.90;226.50;231333.00;;;;5050875;28;20225;-75
2022/08/14 11:30:06;;;;;;;0.00;0.00;;;27.20;99.90;226.50;231333.00;;;;5051265;28;20197;-75
2022/08/14 11:32:58;;;;;;;0.00;0.00;;;27.30;99.90;226.50;231333.00;;;;5026307;28;20253;-75
2022/08/14 11:35:28;;;;;;;0.00;0.00;;;27.50;99.90;226.50;231333.00;;;;5043731;28;20351;-75
2022/08/14 11:38:16;;;;;;;0.00;0.00;;;27.70;99.90;226.50;231333.00;;;;5035392;28;20221;-74
2022/08/14 11:40:46;;;;;;;0.00;0.00;;;27.80;99.90;226.50;231333.00;;;;5038810;28;20256;-74
2022/08/14 11:43:17;;;;;;;0.00;0.00;;;27.80;99.80;226.50;231333.00;;;;5034981;28;20201;-73